Time;durP1;ratioP1;P1;durP2;ratioP2;P2;SDS_P1;SDS_P2;PMS_P1;PMS_P2;Temp;Humidity;BMP_temperature;BMP_pressure;BME280_temperature;BME280_humidity;BME280_pressure;Samples;Min_cycle;Max_cycle;Signal;HPM_P1;HPM_P2
2021/12/04 00:01:21;;;;;;;6.18;3.13;;;5.10;66.80;;;;;;5032600;28;20018;-24
2021/12/04 00:03:47;;;;;;;4.72;3.03;;;5.10;66.70;;;;;;5032528;28;20060;-24
2021/12/04 00:06:38;;;;;;;6.50;4.25;;;5.00;66.80;;;;;;5032626;28;20357;-24
2021/12/04 00:09:04;;;;;;;6.90;3.72;;;5.00;66.70;;;;;;5032177;28;20037;-24
2021/12/04 00:11:36;;;;;;;8.63;4.88;;;5.00;66.70;;;;;;5036151;28;20029;-24
2021/12/04 00:14:02;;;;;;;13.32;8.40;;;4.90;66.70;;;;;;5036591;28;20103;-24
2021/12/04 00:16:28;;;;;;;11.45;6.57;;;4.90;66.70;;;;;;5034830;28;20037;-24
2021/12/04 00:18:54;;;;;;;14.25;7.22;;;4.90;66.80;;;;;;5035995;28;20556;-24
2021/12/04 00:21:20;;;;;;;9.57;6.25;;;4.90;66.90;;;;;;5035999;28;20037;-25
2021/12/04 00:23:46;;;;;;;9.02;5.75;;;4.80;66.90;;;;;;5035918;28;20116;-25
2021/12/04 00:26:12;;;;;;;12.77;8.30;;;4.80;67.00;;;;;;5035643;28;20090;-25
2021/12/04 00:28:38;;;;;;;10.73;5.85;;;4.70;67.00;;;;;;5035800;28;20066;-25
2021/12/04 00:31:08;;;;;;;11.93;7.57;;;4.70;67.10;;;;;;5036003;28;20033;-24
2021/12/04 00:33:36;;;;;;;10.23;5.45;;;4.60;67.30;;;;;;5035479;28;20062;-24
2021/12/04 00:36:23;;;;;;;14.38;8.43;;;4.60;67.50;;;;;;5035704;28;20032;-24
2021/12/04 00:49:47;;;;;;;7.38;4.05;;;4.40;67.40;;;;;;5035642;28;20424;-25
2021/12/04 00:52:13;;;;;;;5.78;3.85;;;4.40;67.40;;;;;;5033857;28;20037;-24
2021/12/04 00:54:39;;;;;;;4.90;3.10;;;4.40;67.40;;;;;;5035680;28;20059;-24
2021/12/04 00:57:05;;;;;;;7.10;3.85;;;4.40;67.40;;;;;;5035376;28;20071;-25
2021/12/04 00:59:31;;;;;;;4.50;2.70;;;4.40;67.40;;;;;;5035571;28;20025;-23
2021/12/04 01:01:57;;;;;;;13.68;6.88;;;4.40;67.40;;;;;;5035199;28;20021;-25
2021/12/04 01:04:23;;;;;;;8.82;4.95;;;4.40;67.60;;;;;;5035115;28;20029;-24
2021/12/04 01:06:50;;;;;;;9.02;5.05;;;4.30;67.70;;;;;;5035435;28;20029;-24
2021/12/04 01:09:23;;;;;;;11.13;5.30;;;4.30;67.70;;;;;;5035306;28;20022;-25
2021/12/04 01:11:51;;;;;;;6.00;3.42;;;4.30;67.60;;;;;;5035038;28;20560;-24
2021/12/04 01:14:21;;;;;;;7.68;3.80;;;4.30;67.60;;;;;;5035185;28;20025;-24
2021/12/04 01:16:48;;;;;;;12.90;6.90;;;4.30;67.60;;;;;;5035292;28;20032;-24
2021/12/04 01:19:15;;;;;;;12.45;6.13;;;4.30;67.60;;;;;;5034793;28;20025;-24
2021/12/04 01:21:42;;;;;;;6.53;3.70;;;4.30;67.60;;;;;;5034781;28;20033;-25
2021/12/04 01:24:08;;;;;;;8.65;4.47;;;4.30;67.60;;;;;;5035127;28;20025;-25
2021/12/04 01:26:34;;;;;;;7.07;4.38;;;4.40;67.60;;;;;;5034530;28;20366;-24
2021/12/04 01:29:00;;;;;;;5.93;3.20;;;4.40;67.70;;;;;;5034759;28;20025;-25
2021/12/04 01:31:26;;;;;;;3.67;2.50;;;4.30;67.60;;;;;;5034803;28;20037;-24
2021/12/04 01:33:52;;;;;;;10.88;6.45;;;4.40;67.60;;;;;;5033265;28;20041;-25
2021/12/04 01:36:18;;;;;;;5.53;3.90;;;4.40;67.50;;;;;;5034489;28;20036;-24
2021/12/04 01:38:44;;;;;;;6.72;3.40;;;4.40;67.50;;;;;;5034465;28;20022;-24
2021/12/04 01:41:10;;;;;;;6.40;3.72;;;4.40;67.60;;;;;;5034789;28;20040;-25
2021/12/04 01:43:37;;;;;;;5.35;2.85;;;4.50;67.50;;;;;;5034677;28;20021;-24
2021/12/04 01:46:03;;;;;;;6.80;4.15;;;4.50;67.50;;;;;;5034347;28;20547;-25
2021/12/04 01:48:29;;;;;;;6.00;3.75;;;4.60;67.40;;;;;;5032873;28;20026;-25
2021/12/04 01:50:56;;;;;;;6.88;3.50;;;4.60;67.30;;;;;;5034242;28;20083;-25
2021/12/04 01:53:24;;;;;;;6.55;3.30;;;4.70;67.20;;;;;;5034264;28;20026;-25
2021/12/04 01:55:52;;;;;;;6.55;3.63;;;4.70;67.20;;;;;;5034487;28;20025;-25
2021/12/04 01:58:18;;;;;;;4.13;2.67;;;4.80;67.10;;;;;;5034241;28;20473;-24
2021/12/04 02:00:44;;;;;;;6.60;3.90;;;4.80;67.00;;;;;;5034125;28;20147;-24
2021/12/04 02:03:13;;;;;;;9.07;4.57;;;4.90;66.90;;;;;;5034146;28;20112;-24
2021/12/04 02:05:41;;;;;;;7.30;4.38;;;4.90;66.70;;;;;;5034295;28;20033;-25
2021/12/04 02:08:09;;;;;;;7.72;4.32;;;4.90;66.60;;;;;;5034232;28;20030;-24
2021/12/04 02:10:35;;;;;;;5.72;3.42;;;5.00;66.60;;;;;;5033605;28;20508;-24
2021/12/04 02:13:02;;;;;;;10.05;6.22;;;5.00;66.60;;;;;;5032621;28;20037;-24
2021/12/04 02:15:29;;;;;;;9.07;5.10;;;5.00;66.70;;;;;;5034163;28;20035;-25
2021/12/04 02:17:56;;;;;;;5.95;3.50;;;5.00;66.60;;;;;;5033696;28;20036;-25
2021/12/04 02:20:25;;;;;;;6.57;3.50;;;5.00;66.60;;;;;;5033868;28;20095;-24
2021/12/04 02:22:51;;;;;;;5.15;3.22;;;5.00;66.50;;;;;;5033986;28;20030;-24
2021/12/04 02:25:19;;;;;;;3.92;2.53;;;5.00;66.70;;;;;;5033645;28;20022;-25
2021/12/04 02:27:46;;;;;;;8.48;5.18;;;5.00;66.50;;;;;;5033608;28;20029;-25
2021/12/04 02:30:20;;;;;;;6.53;3.65;;;5.00;66.60;;;;;;5033462;28;20397;-25
2021/12/04 02:32:47;;;;;;;2.95;2.15;;;5.00;66.70;;;;;;5032866;28;20057;-24
2021/12/04 02:35:16;;;;;;;4.50;2.50;;;5.00;66.60;;;;;;5032233;28;20030;-25
2021/12/04 02:37:43;;;;;;;5.50;2.85;;;5.00;66.60;;;;;;5034088;28;20029;-25
2021/12/04 02:40:13;;;;;;;4.35;2.60;;;5.00;66.50;;;;;;5033766;28;20029;-24
2021/12/04 02:42:39;;;;;;;4.18;2.72;;;5.00;66.50;;;;;;5033352;28;20045;-25
2021/12/04 02:45:09;;;;;;;4.88;2.88;;;5.00;66.60;;;;;;5033374;28;20025;-24
2021/12/04 02:47:36;;;;;;;4.72;2.85;;;5.00;66.70;;;;;;5033643;28;20109;-25
2021/12/04 02:50:09;;;;;;;5.03;2.88;;;5.00;66.70;;;;;;5033206;28;20033;-24
2021/12/04 02:52:35;;;;;;;3.08;2.35;;;5.00;66.70;;;;;;5033016;28;20037;-24
2021/12/04 02:55:05;;;;;;;4.80;2.47;;;5.00;66.70;;;;;;5033178;28;20047;-25
2021/12/04 02:57:34;;;;;;;6.95;3.55;;;5.00;66.70;;;;;;5033177;28;20044;-25
2021/12/04 03:00:00;;;;;;;5.32;3.22;;;5.00;66.80;;;;;;5033156;28;20029;-24
2021/12/04 03:02:26;;;;;;;6.63;3.70;;;5.10;66.80;;;;;;5032921;28;20029;-25
2021/12/04 03:04:55;;;;;;;3.70;2.50;;;5.10;66.80;;;;;;5033103;28;20044;-25
2021/12/04 03:07:22;;;;;;;7.53;3.83;;;5.10;66.70;;;;;;5033287;28;20021;-24
2021/12/04 03:09:48;;;;;;;5.68;3.65;;;5.10;66.70;;;;;;5031860;28;20030;-23
2021/12/04 03:12:16;;;;;;;9.70;5.75;;;5.10;66.70;;;;;;5031629;28;20381;-25
2021/12/04 03:14:42;;;;;;;8.45;3.95;;;5.20;66.80;;;;;;5032957;28;20072;-24
2021/12/04 03:17:08;;;;;;;8.07;4.55;;;5.20;66.80;;;;;;5033091;28;20100;-24
2021/12/04 03:19:36;;;;;;;9.10;4.88;;;5.10;66.90;;;;;;5033071;28;20488;-25
2021/12/04 03:22:02;;;;;;;10.30;5.05;;;5.10;66.90;;;;;;5032974;28;20504;-25
2021/12/04 03:24:30;;;;;;;10.10;5.95;;;5.10;67.00;;;;;;5032793;28;20025;-25
2021/12/04 03:26:56;;;;;;;6.97;3.65;;;5.10;66.90;;;;;;5033232;28;20033;-24
2021/12/04 03:29:23;;;;;;;11.35;6.47;;;5.10;66.80;;;;;;5031693;28;20033;-25
2021/12/04 03:42:49;;;;;;;4.97;3.05;;;5.00;66.80;;;;;;5032890;28;20034;-24
2021/12/04 03:45:16;;;;;;;5.28;3.25;;;5.00;66.80;;;;;;5036162;28;20030;-24
2021/12/04 03:47:46;;;;;;;5.03;3.10;;;4.90;66.80;;;;;;5036685;28;20453;-25
2021/12/04 03:50:14;;;;;;;4.22;2.60;;;4.90;66.80;;;;;;5036548;28;20384;-24
2021/12/04 03:52:40;;;;;;;4.70;2.65;;;4.90;66.80;;;;;;5036779;28;20049;-24
2021/12/04 03:55:07;;;;;;;8.02;4.45;;;4.90;66.80;;;;;;5036429;28;20066;-25
2021/12/04 03:57:34;;;;;;;5.65;3.17;;;4.90;67.00;;;;;;5036535;28;20086;-25
2021/12/04 04:00:00;;;;;;;5.95;3.15;;;4.90;67.00;;;;;;5037061;28;20062;-24
2021/12/04 04:02:27;;;;;;;4.57;2.67;;;4.90;67.00;;;;;;5036192;28;20017;-24
2021/12/04 04:04:53;;;;;;;5.97;3.20;;;4.90;67.10;;;;;;5036289;28;20033;-24
2021/12/04 04:07:19;;;;;;;4.88;2.75;;;4.90;67.10;;;;;;5036258;28;20028;-25
2021/12/04 04:09:45;;;;;;;8.30;4.65;;;4.90;67.10;;;;;;5036507;28;20022;-24
2021/12/04 04:12:11;;;;;;;4.65;2.60;;;4.90;67.10;;;;;;5036409;28;20087;-24
2021/12/04 04:14:37;;;;;;;5.13;2.72;;;4.80;67.10;;;;;;5036452;28;20029;-24
2021/12/04 04:17:04;;;;;;;6.43;3.28;;;4.80;67.20;;;;;;5034880;28;20140;-24
2021/12/04 04:19:30;;;;;;;4.30;2.65;;;4.80;67.40;;;;;;5034722;28;20033;-24
2021/12/04 04:21:58;;;;;;;4.68;2.63;;;4.80;67.40;;;;;;5036086;28;20029;-24
2021/12/04 04:24:29;;;;;;;4.47;2.55;;;4.80;67.30;;;;;;5036014;28;20085;-24
2021/12/04 04:26:55;;;;;;;4.97;3.38;;;4.90;67.30;;;;;;5036197;28;20100;-25
2021/12/04 04:29:21;;;;;;;4.63;2.53;;;5.00;67.50;;;;;;5036199;28;20105;-25
2021/12/04 04:31:48;;;;;;;5.13;2.67;;;5.00;67.40;;;;;;5035746;28;20044;-24
2021/12/04 04:34:29;;;;;;;4.78;2.83;;;5.00;67.20;;;;;;5035485;28;20386;-24
2021/12/04 05:14:47;;;;;;;3.97;2.58;;;5.20;66.90;;;;;;4974275;28;20098;-24
2021/12/04 05:17:16;;;;;;;3.90;2.20;;;5.20;67.20;;;;;;4974143;28;20102;-25
2021/12/04 05:19:52;;;;;;;7.45;3.22;;;5.10;67.10;;;;;;4973986;28;20043;-24
2021/12/04 05:22:18;;;;;;;5.00;3.10;;;5.10;67.30;;;;;;4973868;28;20031;-24
2021/12/04 05:24:44;;;;;;;4.38;2.55;;;5.10;67.30;;;;;;4974029;28;20039;-25
2021/12/04 05:27:11;;;;;;;3.13;2.38;;;5.10;67.50;;;;;;4973965;28;20026;-25
2021/12/04 05:29:37;;;;;;;4.80;3.00;;;5.10;67.40;;;;;;4974795;28;20034;-25
2021/12/04 05:32:05;;;;;;;7.63;4.75;;;5.10;67.40;;;;;;4974155;28;20419;-25
2021/12/04 05:34:33;;;;;;;4.95;2.85;;;5.10;67.50;;;;;;4973486;28;20045;-24
2021/12/04 05:36:59;;;;;;;4.80;2.72;;;5.10;67.50;;;;;;4957554;28;20027;-25
2021/12/04 05:39:26;;;;;;;6.15;3.17;;;5.10;67.50;;;;;;4973709;28;20125;-25
2021/12/04 05:41:52;;;;;;;4.78;3.20;;;5.10;67.40;;;;;;4957543;28;20023;-24
2021/12/04 05:44:22;;;;;;;8.27;4.13;;;5.00;67.50;;;;;;4973463;28;20506;-25
2021/12/04 05:47:02;;;;;;;4.15;2.50;;;5.00;67.50;;;;;;4973638;28;20041;-24
2021/12/04 05:49:45;;;;;;;3.67;2.35;;;5.00;67.50;;;;;;4973469;28;20042;-24
2021/12/04 05:55:08;;;;;;;6.03;3.15;;;5.00;67.50;;;;;;5034319;28;20079;-25
2021/12/04 05:57:34;;;;;;;4.18;2.50;;;5.00;67.40;;;;;;5034203;28;20026;-24
2021/12/04 06:00:01;;;;;;;4.43;3.00;;;4.90;67.50;;;;;;5032941;28;20032;-24
2021/12/04 06:02:27;;;;;;;5.57;2.72;;;4.90;67.40;;;;;;5033870;28;20481;-24
2021/12/04 06:04:53;;;;;;;6.40;3.80;;;4.90;67.40;;;;;;5033979;28;20110;-24
2021/12/04 06:07:19;;;;;;;5.07;3.05;;;4.90;67.40;;;;;;5033072;28;20037;-24
2021/12/04 06:09:45;;;;;;;4.93;2.95;;;4.90;67.50;;;;;;5034216;28;20025;-25
2021/12/04 06:12:11;;;;;;;5.20;3.00;;;4.90;67.60;;;;;;5033840;28;20381;-25
2021/12/04 06:14:37;;;;;;;6.53;3.20;;;4.90;67.60;;;;;;5034192;28;20030;-24
2021/12/04 06:17:03;;;;;;;4.63;2.80;;;4.80;67.70;;;;;;5033814;28;20044;-25
2021/12/04 06:24:59;;;;;;;5.75;3.40;;;4.80;67.80;;;;;;5034036;28;19928;-25
2021/12/04 06:27:25;;;;;;;6.82;4.60;;;4.70;67.70;;;;;;5032644;28;20472;-24
2021/12/04 06:29:51;;;;;;;8.95;3.67;;;4.70;67.80;;;;;;5033604;28;20116;-25
2021/12/04 06:32:19;;;;;;;7.05;3.33;;;4.70;67.80;;;;;;5033485;28;20048;-23
2021/12/04 06:34:45;;;;;;;9.52;5.50;;;4.70;67.80;;;;;;5033496;28;20030;-25
2021/12/04 06:37:11;;;;;;;5.55;3.30;;;4.70;68.20;;;;;;5034261;28;20026;-25
2021/12/04 06:39:37;;;;;;;13.82;8.00;;;4.80;68.20;;;;;;5033399;28;20378;-24
2021/12/04 06:42:03;;;;;;;10.48;5.75;;;4.80;68.30;;;;;;5033485;28;20036;-24
2021/12/04 06:44:29;;;;;;;5.47;3.10;;;4.80;68.40;;;;;;5033552;28;20526;-24
2021/12/04 06:46:55;;;;;;;6.72;3.53;;;4.80;68.30;;;;;;5033651;28;20102;-25
2021/12/04 06:49:26;;;;;;;7.85;4.03;;;4.80;68.10;;;;;;5033203;28;20110;-25
2021/12/04 06:51:56;;;;;;;3.72;2.53;;;4.80;68.30;;;;;;5033595;28;20033;-24
2021/12/04 06:54:26;;;;;;;4.00;2.63;;;4.80;68.10;;;;;;5033069;28;20028;-25
2021/12/04 06:56:52;;;;;;;4.28;2.72;;;4.90;68.00;;;;;;5033182;28;20021;-25
2021/12/04 06:59:23;;;;;;;4.72;2.72;;;4.90;68.10;;;;;;5031985;28;20029;-25
2021/12/04 07:01:49;;;;;;;4.82;2.78;;;4.90;68.10;;;;;;5034115;28;20105;-24
2021/12/04 07:04:17;;;;;;;3.40;2.42;;;4.90;68.00;;;;;;5033182;28;20479;-25
2021/12/04 07:06:45;;;;;;;4.50;2.17;;;4.90;68.00;;;;;;5033452;28;20108;-25
2021/12/04 07:09:12;;;;;;;5.63;2.97;;;5.00;67.90;;;;;;5033410;28;20060;-25
2021/12/04 07:11:38;;;;;;;4.13;2.58;;;5.00;68.00;;;;;;5033313;28;20362;-25
2021/12/04 07:14:04;;;;;;;4.22;2.67;;;4.90;67.80;;;;;;5033020;28;20028;-24
2021/12/04 07:16:31;;;;;;;5.85;2.63;;;5.00;67.90;;;;;;5032863;28;20044;-25
2021/12/04 07:18:57;;;;;;;3.58;2.30;;;5.00;68.00;;;;;;5033999;28;20103;-24
2021/12/04 07:21:24;;;;;;;6.63;3.30;;;5.00;67.90;;;;;;5037383;28;20499;-25
2021/12/04 07:23:50;;;;;;;4.10;2.45;;;5.00;68.00;;;;;;5037337;28;20026;-25
2021/12/04 07:26:18;;;;;;;6.03;2.90;;;5.00;68.00;;;;;;5037258;28;20036;-25
2021/12/04 07:28:44;;;;;;;5.35;3.03;;;5.10;68.00;;;;;;5036954;28;20041;-24
2021/12/04 07:31:10;;;;;;;5.05;2.80;;;5.10;68.10;;;;;;5037288;28;20034;-24
2021/12/04 07:33:36;;;;;;;10.10;4.60;;;5.20;68.10;;;;;;5036679;28;20053;-24
2021/12/04 07:36:03;;;;;;;3.83;2.75;;;5.30;68.30;;;;;;5035611;28;20142;-25
2021/12/04 07:38:30;;;;;;;6.05;3.17;;;5.30;68.00;;;;;;5036850;28;20382;-23
2021/12/04 07:40:57;;;;;;;6.05;2.72;;;5.40;67.80;;;;;;5036760;28;20029;-24
2021/12/04 07:43:24;;;;;;;10.07;5.60;;;5.50;67.70;;;;;;5036960;28;20053;-25
2021/12/04 07:45:50;;;;;;;6.28;3.13;;;5.50;68.10;;;;;;5035432;28;20113;-24
2021/12/04 07:48:16;;;;;;;11.43;6.22;;;5.60;68.00;;;;;;5036756;28;20101;-24
2021/12/04 07:50:42;;;;;;;7.55;4.20;;;5.60;68.70;;;;;;5036724;28;20029;-24
2021/12/04 07:53:07;;;;;;;8.90;4.20;;;5.70;68.00;;;;;;5036601;28;20557;-25
2021/12/04 07:55:33;;;;;;;17.60;10.30;;;5.80;67.80;;;;;;5036829;28;20129;-25
2021/12/04 07:58:00;;;;;;;8.40;4.85;;;5.80;68.00;;;;;;5035279;28;20389;-24
2021/12/04 08:00:26;;;;;;;5.43;3.38;;;5.90;68.10;;;;;;5036255;28;20021;-25
2021/12/04 08:02:52;;;;;;;7.80;4.07;;;5.90;67.60;;;;;;5037234;28;20053;-25
2021/12/04 08:05:19;;;;;;;6.10;3.47;;;6.00;67.40;;;;;;5036544;28;20036;-25
2021/12/04 08:07:45;;;;;;;6.22;3.53;;;6.00;67.40;;;;;;5036283;28;20029;-24
2021/12/04 08:10:15;;;;;;;6.90;3.58;;;6.10;67.30;;;;;;5036561;28;20025;-25
2021/12/04 08:12:41;;;;;;;7.82;3.78;;;6.10;67.20;;;;;;5036180;28;20500;-24
2021/12/04 08:15:09;;;;;;;11.75;6.80;;;6.20;67.10;;;;;;5036434;28;20036;-23
2021/12/04 08:17:35;;;;;;;6.22;3.65;;;6.30;67.10;;;;;;5036379;28;20092;-24
2021/12/04 08:20:04;;;;;;;5.22;2.97;;;6.40;67.00;;;;;;5036248;28;20029;-25
2021/12/04 08:22:30;;;;;;;6.53;3.67;;;6.40;67.00;;;;;;5036133;28;20025;-24
2021/12/04 08:24:56;;;;;;;7.45;3.85;;;6.50;66.80;;;;;;5034710;28;20440;-25
2021/12/04 08:27:22;;;;;;;6.10;3.42;;;6.50;66.80;;;;;;5036508;28;20025;-24
2021/12/04 08:29:48;;;;;;;8.48;4.53;;;6.60;66.80;;;;;;5035523;28;20021;-25
2021/12/04 08:32:14;;;;;;;7.68;4.07;;;6.70;66.90;;;;;;5034953;28;20060;-25
2021/12/04 08:34:40;;;;;;;6.10;3.70;;;6.80;66.70;;;;;;5035896;28;20025;-25
2021/12/04 08:37:06;;;;;;;10.77;6.20;;;6.90;66.70;;;;;;5035740;28;20032;-25
2021/12/04 08:39:32;;;;;;;6.80;3.63;;;6.90;65.90;;;;;;5035691;28;20028;-24
2021/12/04 08:41:59;;;;;;;14.35;8.05;;;7.00;66.40;;;;;;5036225;28;20545;-25
2021/12/04 08:44:26;;;;;;;6.57;3.83;;;7.10;66.50;;;;;;5035713;28;20049;-25
2021/12/04 08:46:52;;;;;;;13.23;7.85;;;7.20;65.90;;;;;;5035852;28;20036;-24
2021/12/04 08:49:19;;;;;;;7.18;4.18;;;7.30;65.30;;;;;;5035395;28;20029;-25
2021/12/04 08:51:44;;;;;;;7.60;3.90;;;7.40;65.40;;;;;;5035491;28;20034;-24
2021/12/04 08:54:11;;;;;;;7.47;4.20;;;7.50;65.40;;;;;;5035655;28;20079;-24
2021/12/04 08:56:37;;;;;;;6.85;3.58;;;7.60;65.40;;;;;;5035389;28;20032;-24
2021/12/04 08:59:05;;;;;;;11.35;6.28;;;7.70;64.80;;;;;;5035355;28;20025;-25
2021/12/04 09:01:36;;;;;;;10.80;5.95;;;7.90;64.50;;;;;;5035690;28;20044;-24
2021/12/04 09:04:30;;;;;;;7.63;4.95;;;8.10;64.70;;;;;;5035441;28;20543;-24
2021/12/04 09:06:57;;;;;;;6.32;3.55;;;8.20;62.80;;;;;;5034988;28;20037;-25
2021/12/04 09:09:24;;;;;;;9.80;5.60;;;8.40;64.10;;;;;;5035123;28;20025;-24
2021/12/04 09:11:59;;;;;;;8.52;5.10;;;8.60;63.60;;;;;;5035275;28;20025;-25
2021/12/04 09:14:28;;;;;;;6.65;3.92;;;8.80;63.00;;;;;;5034903;28;20076;-24
2021/12/04 09:16:57;;;;;;;10.93;6.53;;;8.90;64.20;;;;;;5034998;28;20069;-25
2021/12/04 09:19:23;;;;;;;8.25;5.28;;;9.00;62.70;;;;;;5035044;28;20025;-24
2021/12/04 09:21:51;;;;;;;10.63;5.85;;;9.10;62.60;;;;;;5034904;28;20025;-25
2021/12/04 09:24:24;;;;;;;10.05;6.15;;;9.20;60.30;;;;;;5034915;28;20460;-24
2021/12/04 09:32:42;;;;;;;11.02;6.22;;;9.40;60.70;;;;;;5034343;28;20413;-24
2021/12/04 10:05:54;;;;;;;9.77;5.35;;;9.40;58.20;;;;;;5000595;28;19951;-24
2021/12/04 10:12:07;;;;;;;10.90;6.75;;;9.50;59.70;;;;;;5034219;28;20576;-24
2021/12/04 10:20:05;;;;;;;6.90;3.80;;;9.70;60.20;;;;;;4992440;28;20029;-25
2021/12/04 10:22:40;;;;;;;10.60;6.70;;;9.80;60.80;;;;;;4992121;28;20039;-25
2021/12/04 10:33:42;;;;;;;7.88;4.40;;;10.10;61.00;;;;;;4992005;28;20597;-25
2021/12/04 10:36:11;;;;;;;6.18;3.92;;;10.20;60.40;;;;;;4992147;28;20023;-24
2021/12/04 10:38:44;;;;;;;9.25;5.45;;;10.30;61.00;;;;;;4992416;28;20041;-25
2021/12/04 10:41:12;;;;;;;4.97;3.40;;;10.40;60.90;;;;;;4992227;28;20066;-25
2021/12/04 10:43:40;;;;;;;11.27;6.90;;;10.40;60.40;;;;;;4992011;28;20117;-25
2021/12/04 10:46:16;;;;;;;9.80;5.32;;;10.40;59.30;;;;;;4992515;28;20037;-24
2021/12/04 10:48:51;;;;;;;6.38;3.97;;;10.40;56.80;;;;;;4991933;28;20023;-25
2021/12/04 10:53:54;;;;;;;9.65;5.60;;;10.40;57.70;;;;;;5017010;28;20026;-24
2021/12/04 11:04:30;;;;;;;10.00;5.85;;;10.70;58.00;;;;;;5033178;28;20022;-24
2021/12/04 11:43:02;;;;;;;4.22;2.97;;;11.30;56.30;;;;;;5030838;28;20022;-25
2021/12/04 11:45:46;;;;;;;6.82;3.40;;;11.40;57.30;;;;;;5031123;28;20030;-25
2021/12/04 11:48:13;;;;;;;6.20;3.88;;;11.40;57.10;;;;;;5030563;28;20025;-26
2021/12/04 11:50:42;;;;;;;8.07;4.60;;;11.30;57.00;;;;;;5031038;28;20485;-24
2021/12/04 11:53:17;;;;;;;5.95;3.85;;;11.30;55.00;;;;;;5030680;28;20176;-24
2021/12/04 11:55:46;;;;;;;7.50;4.68;;;11.20;55.60;;;;;;5030685;28;20025;-25
2021/12/04 11:58:20;;;;;;;6.45;4.43;;;11.20;54.30;;;;;;5030485;28;20033;-25
2021/12/04 12:00:48;;;;;;;7.18;4.28;;;11.10;56.30;;;;;;5032691;28;20482;-25
2021/12/04 12:03:21;;;;;;;6.47;4.50;;;11.10;56.00;;;;;;5032609;28;20482;-24
2021/12/04 12:05:53;;;;;;;7.05;4.72;;;11.00;55.80;;;;;;5035110;28;20025;-24
2021/12/04 12:08:32;;;;;;;5.05;3.28;;;10.90;54.40;;;;;;5036128;28;20362;-24
2021/12/04 12:11:04;;;;;;;7.15;4.55;;;10.90;56.50;;;;;;5035051;28;20025;-24
2021/12/04 12:13:45;;;;;;;7.80;5.22;;;10.90;56.40;;;;;;5036559;28;20034;-25
2021/12/04 12:16:20;;;;;;;9.45;4.70;;;10.80;55.20;;;;;;5035918;28;20022;-25
2021/12/04 12:19:07;;;;;;;7.00;4.68;;;10.80;55.40;;;;;;5036010;28;20385;-25
2021/12/04 12:22:18;;;;;;;8.73;5.20;;;10.70;55.10;;;;;;5036333;28;20021;-25
2021/12/04 12:27:27;;;;;;;5.97;3.53;;;10.60;55.50;;;;;;5035975;28;20088;-24
2021/12/04 12:36:13;;;;;;;11.77;6.32;;;10.40;55.30;;;;;;5036117;28;20036;-25
2021/12/04 12:39:13;;;;;;;6.53;3.83;;;10.40;55.00;;;;;;5036127;28;20105;-25
2021/12/04 12:41:48;;;;;;;6.85;3.72;;;10.40;56.30;;;;;;5035655;28;20038;-25
2021/12/04 12:44:23;;;;;;;4.85;3.28;;;10.40;54.40;;;;;;5035423;28;20493;-24
2021/12/04 12:47:03;;;;;;;10.70;6.40;;;10.40;55.80;;;;;;5035848;28;20037;-25
2021/12/04 12:49:44;;;;;;;11.40;6.43;;;10.40;56.20;;;;;;5035505;28;20024;-25
2021/12/04 12:52:13;;;;;;;7.65;5.13;;;10.30;55.20;;;;;;5035806;28;20037;-25
2021/12/04 12:54:53;;;;;;;7.85;4.60;;;10.40;56.10;;;;;;5035721;28;20033;-25
2021/12/04 12:57:31;;;;;;;5.50;4.03;;;10.30;52.60;;;;;;5036205;28;20037;-25
2021/12/04 13:14:12;;;;;;;9.57;6.03;;;10.40;56.30;;;;;;5035491;28;20053;-24
2021/12/04 13:16:41;;;;;;;6.53;3.70;;;10.40;55.00;;;;;;5034763;28;20083;-25
2021/12/04 13:19:11;;;;;;;8.93;6.20;;;10.40;54.70;;;;;;5034868;28;20029;-24
2021/12/04 13:21:40;;;;;;;6.45;3.60;;;10.40;54.70;;;;;;5034978;28;20385;-25
2021/12/04 13:24:10;;;;;;;4.63;3.22;;;10.40;55.70;;;;;;5035195;28;20022;-25
2021/12/04 13:26:40;;;;;;;6.60;3.70;;;10.40;56.00;;;;;;5034872;28;20457;-25
2021/12/04 13:29:09;;;;;;;6.20;4.13;;;10.40;56.00;;;;;;5035080;28;20057;-25
2021/12/04 13:31:38;;;;;;;9.25;5.78;;;10.40;55.20;;;;;;5034656;28;20037;-24
2021/12/04 13:34:09;;;;;;;7.28;4.47;;;10.40;53.60;;;;;;5034330;28;20046;-24
2021/12/04 13:36:36;;;;;;;5.70;3.70;;;10.40;55.20;;;;;;5033807;28;20040;-24
2021/12/04 13:39:07;;;;;;;8.57;5.68;;;10.40;55.80;;;;;;5034911;28;20116;-25
2021/12/04 13:41:35;;;;;;;8.20;5.30;;;10.30;54.50;;;;;;5034589;28;20029;-24
2021/12/04 13:44:05;;;;;;;10.52;7.10;;;10.20;54.50;;;;;;5034486;28;20033;-25
2021/12/04 13:46:41;;;;;;;10.73;6.63;;;10.20;54.60;;;;;;5034301;28;20026;-24
2021/12/04 13:49:09;;;;;;;10.27;6.47;;;10.10;54.60;;;;;;5033401;28;20057;-25
2021/12/04 13:51:36;;;;;;;11.70;7.00;;;10.10;54.20;;;;;;5034442;28;20030;-24
2021/12/04 13:54:02;;;;;;;10.98;7.07;;;9.90;53.90;;;;;;5035159;28;20036;-26
2021/12/04 13:56:30;;;;;;;11.27;7.03;;;9.90;54.80;;;;;;5034010;28;20057;-24
2021/12/04 13:59:02;;;;;;;10.32;6.75;;;9.80;54.80;;;;;;5034770;28;20029;-24
2021/12/04 14:01:30;;;;;;;10.20;6.30;;;9.70;54.20;;;;;;5034058;28;20032;-26
2021/12/04 14:04:00;;;;;;;8.90;4.95;;;9.60;55.10;;;;;;5034364;28;20030;-25
2021/12/04 14:06:27;;;;;;;9.63;6.32;;;9.60;55.60;;;;;;5033799;28;20508;-25
2021/12/04 14:08:58;;;;;;;13.23;6.97;;;9.50;54.90;;;;;;5034273;28;20416;-25
2021/12/04 14:11:32;;;;;;;11.75;6.75;;;9.50;55.30;;;;;;5034462;28;20029;-24
2021/12/04 14:13:59;;;;;;;13.25;7.85;;;9.40;56.10;;;;;;5034280;28;20048;-25
2021/12/04 14:16:26;;;;;;;10.50;7.32;;;9.30;55.30;;;;;;5033903;28;20582;-25
2021/12/04 14:18:52;;;;;;;10.40;6.93;;;9.30;56.30;;;;;;5033773;28;20535;-24
2021/12/04 14:21:19;;;;;;;11.90;7.78;;;9.20;56.90;;;;;;5032921;28;20017;-25
2021/12/04 14:23:49;;;;;;;10.75;6.80;;;9.10;56.60;;;;;;5032567;28;20126;-24
2021/12/04 14:26:16;;;;;;;8.85;5.85;;;9.10;56.90;;;;;;5033788;28;20030;-26
2021/12/04 14:28:44;;;;;;;10.35;6.28;;;9.00;57.30;;;;;;5032881;28;20428;-26
2021/12/04 14:31:12;;;;;;;12.32;7.43;;;9.00;57.80;;;;;;5034446;28;20089;-25
2021/12/04 14:33:40;;;;;;;12.20;6.38;;;8.90;57.70;;;;;;5033414;28;20052;-25
2021/12/04 14:36:11;;;;;;;11.50;7.22;;;8.90;57.40;;;;;;5033791;28;20430;-25
2021/12/04 14:38:44;;;;;;;10.73;6.28;;;8.90;57.50;;;;;;5033394;28;20515;-25
2021/12/04 14:41:10;;;;;;;9.27;5.60;;;8.90;57.40;;;;;;5033861;28;20048;-24
2021/12/04 14:43:39;;;;;;;10.80;7.38;;;8.80;57.40;;;;;;5033421;28;20504;-25
2021/12/04 14:46:13;;;;;;;7.47;5.22;;;8.80;57.20;;;;;;5033346;28;20508;-25
2021/12/04 14:48:43;;;;;;;11.75;7.75;;;8.80;57.70;;;;;;5033480;28;20477;-24
2021/12/04 14:51:16;;;;;;;10.95;7.30;;;8.80;57.80;;;;;;5033805;28;20381;-25
2021/12/04 14:53:53;;;;;;;11.75;7.75;;;8.70;57.10;;;;;;5033644;28;20108;-25
2021/12/04 14:56:22;;;;;;;12.13;7.45;;;8.60;57.10;;;;;;5033557;28;20026;-24
2021/12/04 14:58:49;;;;;;;12.38;8.32;;;8.60;57.40;;;;;;5033848;28;20030;-25
2021/12/04 15:01:18;;;;;;;10.68;6.80;;;8.50;57.90;;;;;;5033161;28;20428;-24
2021/12/04 15:03:57;;;;;;;13.35;8.07;;;8.50;57.80;;;;;;5033138;28;20108;-25
2021/12/04 15:06:26;;;;;;;11.27;7.32;;;8.40;57.90;;;;;;5033155;28;20473;-25
2021/12/04 15:09:04;;;;;;;9.52;5.88;;;8.40;58.30;;;;;;5033303;28;20437;-25
2021/12/04 15:11:34;;;;;;;9.48;5.65;;;8.40;58.40;;;;;;5033722;28;20033;-24
2021/12/04 15:14:12;;;;;;;7.93;4.85;;;8.40;58.30;;;;;;5032996;28;20075;-24
2021/12/04 15:16:47;;;;;;;10.90;6.22;;;8.40;58.40;;;;;;5033081;28;20538;-25
2021/12/04 15:19:19;;;;;;;9.77;6.45;;;8.40;58.50;;;;;;5033013;28;20044;-25
2021/12/04 15:21:50;;;;;;;6.40;4.05;;;8.30;58.30;;;;;;5033264;28;20029;-24
2021/12/04 15:24:24;;;;;;;6.28;4.03;;;8.30;58.30;;;;;;5032909;28;20393;-25
2021/12/04 15:26:54;;;;;;;8.70;5.70;;;8.30;58.20;;;;;;5033002;28;20032;-24
2021/12/04 15:29:28;;;;;;;10.75;6.05;;;8.30;58.10;;;;;;5033228;28;20448;-25
2021/12/04 15:31:58;;;;;;;14.02;8.18;;;8.30;58.20;;;;;;5033230;28;20029;-25
2021/12/04 15:34:35;;;;;;;15.23;8.18;;;8.20;57.80;;;;;;5033989;28;20053;-25
2021/12/04 15:37:05;;;;;;;21.23;12.50;;;8.20;58.00;;;;;;5033172;28;20121;-25
2021/12/04 15:39:44;;;;;;;12.88;7.93;;;8.20;57.70;;;;;;5033465;28;20048;-26
2021/12/04 15:45:08;;;;;;;9.80;6.05;;;8.20;57.90;;;;;;5037619;28;20030;-26
2021/12/04 15:55:33;;;;;;;9.57;5.72;;;8.10;58.40;;;;;;5036656;28;20029;-26
2021/12/04 15:58:04;;;;;;;15.43;9.55;;;8.00;58.40;;;;;;5036557;28;20517;-24
2021/12/04 16:00:33;;;;;;;14.85;9.38;;;8.00;58.50;;;;;;5036550;28;20038;-25
2021/12/04 16:03:03;;;;;;;15.85;9.60;;;7.90;58.60;;;;;;5036432;28;20056;-25
2021/12/04 16:05:33;;;;;;;16.05;8.23;;;7.90;58.50;;;;;;5036638;28;20108;-25
2021/12/04 16:08:06;;;;;;;14.88;9.93;;;7.90;58.70;;;;;;5036526;28;20028;-25
2021/12/04 16:10:35;;;;;;;14.13;9.13;;;7.90;58.80;;;;;;5036160;28;20025;-25
2021/12/04 16:13:03;;;;;;;12.68;8.93;;;7.90;58.50;;;;;;5036130;28;20834;-25
2021/12/04 16:15:30;;;;;;;11.88;7.65;;;7.90;58.40;;;;;;5036527;28;20067;-24
2021/12/04 16:17:56;;;;;;;11.68;7.70;;;7.80;58.60;;;;;;5036124;28;20044;-25
2021/12/04 16:20:23;;;;;;;12.88;7.25;;;7.80;58.60;;;;;;5036090;28;20043;-24
2021/12/04 16:22:52;;;;;;;10.15;6.20;;;7.80;58.80;;;;;;5036388;28;20091;-24
2021/12/04 16:25:25;;;;;;;9.32;5.53;;;7.80;58.80;;;;;;5035995;28;20022;-25